sensor_id;sensor_type;location;lat;lon;timestamp;pressure;altitude;pressure_sealevel;temperature;humidity
76766;BME280;65707;52.362;6.588;2024-03-23T00:54:49;101044.03;;;8.67;89.07
76766;BME280;65707;52.362;6.588;2024-03-23T00:57:16;101035.72;;;8.70;90.05
76766;BME280;65707;52.362;6.588;2024-03-23T00:59:42;101025.63;;;8.64;89.32
76766;BME280;65707;52.362;6.588;2024-03-23T01:02:08;101035.72;;;8.70;89.60
76766;BME280;65707;52.362;6.588;2024-03-23T01:04:34;101029.91;;;8.74;89.51
76766;BME280;65707;52.362;6.588;2024-03-23T01:07:01;101026.84;;;8.69;89.01
76766;BME280;65707;52.362;6.588;2024-03-23T01:09:28;101024.47;;;8.66;90.09
76766;BME280;65707;52.362;6.588;2024-03-23T01:11:54;101025.47;;;8.65;90.22
76766;BME280;65707;52.362;6.588;2024-03-23T01:14:20;101030.44;;;8.60;89.78
76766;BME280;65707;52.362;6.588;2024-03-23T01:16:47;101028.66;;;8.51;90.04
76766;BME280;65707;52.362;6.588;2024-03-23T01:19:13;101024.28;;;8.50;89.83
76766;BME280;65707;52.362;6.588;2024-03-23T01:21:40;101004.91;;;8.48;89.81
76766;BME280;65707;52.362;6.588;2024-03-23T01:24:05;101023.63;;;8.48;89.48
76766;BME280;65707;52.362;6.588;2024-03-23T01:26:35;101022.06;;;8.46;89.38
76766;BME280;65707;52.362;6.588;2024-03-23T01:29:02;101017.25;;;8.49;89.31
76766;BME280;65707;52.362;6.588;2024-03-23T01:31:29;101013.03;;;8.47;88.65
76766;BME280;65707;52.362;6.588;2024-03-23T01:33:55;100997.53;;;8.50;89.53
76766;BME280;65707;52.362;6.588;2024-03-23T01:36:22;101008.53;;;8.47;88.64
76766;BME280;65707;52.362;6.588;2024-03-23T01:38:47;101008.84;;;8.44;89.93
76766;BME280;65707;52.362;6.588;2024-03-23T01:41:14;100999.00;;;8.45;89.63
76766;BME280;65707;52.362;6.588;2024-03-23T01:43:42;100993.19;;;8.49;89.91
76766;BME280;65707;52.362;6.588;2024-03-23T01:46:08;100981.56;;;8.41;89.82
76766;BME280;65707;52.362;6.588;2024-03-23T01:48:34;100983.13;;;8.43;89.44
76766;BME280;65707;52.362;6.588;2024-03-23T01:51:01;100985.94;;;8.42;89.65
76766;BME280;65707;52.362;6.588;2024-03-23T01:53:27;100988.66;;;8.32;89.01
76766;BME280;65707;52.362;6.588;2024-03-23T01:55:54;100990.66;;;8.30;88.11
76766;BME280;65707;52.362;6.588;2024-03-23T01:58:22;100980.81;;;8.31;88.55
76766;BME280;65707;52.362;6.588;2024-03-23T02:00:50;100975.97;;;8.34;88.49
76766;BME280;65707;52.362;6.588;2024-03-23T02:03:22;100966.19;;;8.25;88.91
76766;BME280;65707;52.362;6.588;2024-03-23T02:05:50;100967.91;;;8.17;88.40
76766;BME280;65707;52.362;6.588;2024-03-23T02:08:17;100958.66;;;8.11;88.23
76766;BME280;65707;52.362;6.588;2024-03-23T02:10:45;100959.50;;;8.12;89.11
76766;BME280;65707;52.362;6.588;2024-03-23T02:13:11;100947.91;;;8.21;88.44
76766;BME280;65707;52.362;6.588;2024-03-23T02:15:39;100960.78;;;8.08;88.63
76766;BME280;65707;52.362;6.588;2024-03-23T02:18:07;100967.19;;;7.97;88.45
76766;BME280;65707;52.362;6.588;2024-03-23T02:20:34;100961.44;;;7.92;88.83
76766;BME280;65707;52.362;6.588;2024-03-23T02:23:01;100953.00;;;7.87;88.99
76766;BME280;65707;52.362;6.588;2024-03-23T02:25:28;100953.75;;;7.79;89.17
76766;BME280;65707;52.362;6.588;2024-03-23T02:27:53;100959.69;;;7.73;88.85
76766;BME280;65707;52.362;6.588;2024-03-23T02:30:20;100955.81;;;7.68;89.23
76766;BME280;65707;52.362;6.588;2024-03-23T02:32:46;100949.75;;;7.66;88.54
76766;BME280;65707;52.362;6.588;2024-03-23T02:35:13;100941.75;;;7.66;88.92
76766;BME280;65707;52.362;6.588;2024-03-23T02:37:39;100945.13;;;7.68;88.83
76766;BME280;65707;52.362;6.588;2024-03-23T02:40:07;100942.44;;;7.68;88.78
76766;BME280;65707;52.362;6.588;2024-03-23T02:42:33;100940.34;;;7.62;88.52
76766;BME280;65707;52.362;6.588;2024-03-23T02:45:00;100909.28;;;7.34;88.53
76766;BME280;65707;52.362;6.588;2024-03-23T02:47:26;100932.00;;;7.47;88.94
76766;BME280;65707;52.362;6.588;2024-03-23T02:49:53;100934.09;;;7.44;89.34
76766;BME280;65707;52.362;6.588;2024-03-23T02:52:19;100923.63;;;7.33;89.15
76766;BME280;65707;52.362;6.588;2024-03-23T02:54:46;100917.44;;;7.23;89.38
76766;BME280;65707;52.362;6.588;2024-03-23T02:57:13;100907.78;;;7.22;89.59
76766;BME280;65707;52.362;6.588;2024-03-23T02:59:40;100905.53;;;7.17;89.62
76766;BME280;65707;52.362;6.588;2024-03-23T03:02:06;100902.03;;;7.17;89.99
76766;BME280;65707;52.362;6.588;2024-03-23T03:04:33;100903.91;;;7.07;89.95
76766;BME280;65707;52.362;6.588;2024-03-23T03:06:58;100908.53;;;7.05;89.55
76766;BME280;65707;52.362;6.588;2024-03-23T03:09:25;100911.94;;;6.97;90.09
76766;BME280;65707;52.362;6.588;2024-03-23T03:11:51;100916.25;;;6.98;89.99
76766;BME280;65707;52.362;6.588;2024-03-23T03:14:19;100908.25;;;6.98;90.02
76766;BME280;65707;52.362;6.588;2024-03-23T03:16:45;100918.81;;;6.90;90.51
76766;BME280;65707;52.362;6.588;2024-03-23T03:19:11;100908.00;;;6.92;90.85
76766;BME280;65707;52.362;6.588;2024-03-23T03:21:37;100913.31;;;6.92;90.52
76766;BME280;65707;52.362;6.588;2024-03-23T03:24:06;100918.38;;;6.85;90.57
76766;BME280;65707;52.362;6.588;2024-03-23T03:26:32;100922.47;;;6.80;91.34
76766;BME280;65707;52.362;6.588;2024-03-23T03:28:59;100927.25;;;6.86;91.16
76766;BME280;65707;52.362;6.588;2024-03-23T03:31:26;100925.16;;;6.80;91.06
76766;BME280;65707;52.362;6.588;2024-03-23T03:33:53;100924.88;;;6.73;90.96
76766;BME280;65707;52.362;6.588;2024-03-23T03:36:19;100932.44;;;6.78;91.82
76766;BME280;65707;52.362;6.588;2024-03-23T03:38:46;100925.72;;;6.83;91.38
76766;BME280;65707;52.362;6.588;2024-03-23T03:41:12;100919.09;;;6.78;91.82
76766;BME280;65707;52.362;6.588;2024-03-23T03:43:38;100918.41;;;6.76;91.40
76766;BME280;65707;52.362;6.588;2024-03-23T03:46:04;100917.00;;;6.72;91.17
76766;BME280;65707;52.362;6.588;2024-03-23T03:48:34;100909.16;;;6.70;91.80
76766;BME280;65707;52.362;6.588;2024-03-23T03:51:00;100909.59;;;6.66;91.43
76766;BME280;65707;52.362;6.588;2024-03-23T03:53:27;100906.63;;;6.69;92.08
76766;BME280;65707;52.362;6.588;2024-03-23T03:55:52;100910.16;;;6.69;92.05
76766;BME280;65707;52.362;6.588;2024-03-23T03:58:19;100903.97;;;6.69;92.10
76766;BME280;65707;52.362;6.588;2024-03-23T04:00:45;100903.53;;;6.64;92.43
76766;BME280;65707;52.362;6.588;2024-03-23T04:03:11;100890.06;;;6.65;91.90
76766;BME280;65707;52.362;6.588;2024-03-23T04:05:39;100892.88;;;6.64;92.12
76766;BME280;65707;52.362;6.588;2024-03-23T04:08:07;100886.28;;;6.68;91.38
76766;BME280;65707;52.362;6.588;2024-03-23T04:10:32;100880.53;;;6.63;91.45
76766;BME280;65707;52.362;6.588;2024-03-23T04:13:00;100887.25;;;6.67;91.78
76766;BME280;65707;52.362;6.588;2024-03-23T04:15:26;100884.88;;;6.64;91.50
76766;BME280;65707;52.362;6.588;2024-03-23T04:17:53;100881.94;;;6.57;92.01
76766;BME280;65707;52.362;6.588;2024-03-23T04:20:19;100878.56;;;6.55;91.62
76766;BME280;65707;52.362;6.588;2024-03-23T04:22:47;100885.03;;;6.62;92.06
76766;BME280;65707;52.362;6.588;2024-03-23T04:25:13;100883.38;;;6.52;92.07
76766;BME280;65707;52.362;6.588;2024-03-23T04:27:40;100881.22;;;6.55;91.61
76766;BME280;65707;52.362;6.588;2024-03-23T04:30:07;100875.94;;;6.46;92.54
76766;BME280;65707;52.362;6.588;2024-03-23T04:32:36;100886.16;;;6.60;91.76
76766;BME280;65707;52.362;6.588;2024-03-23T04:35:02;100876.63;;;6.48;91.71
76766;BME280;65707;52.362;6.588;2024-03-23T04:37:31;100870.88;;;6.43;92.59
76766;BME280;65707;52.362;6.588;2024-03-23T04:40:00;100884.91;;;6.45;92.44
76766;BME280;65707;52.362;6.588;2024-03-23T04:42:28;100880.00;;;6.50;92.83
76766;BME280;65707;52.362;6.588;2024-03-23T04:44:55;100852.25;;;6.23;91.88
76766;BME280;65707;52.362;6.588;2024-03-23T04:47:22;100878.03;;;6.42;93.19
76766;BME280;65707;52.362;6.588;2024-03-23T04:49:49;100877.63;;;6.47;92.62
76766;BME280;65707;52.362;6.588;2024-03-23T04:52:16;100872.13;;;6.39;93.03
76766;BME280;65707;52.362;6.588;2024-03-23T04:54:43;100868.75;;;6.46;92.86
76766;BME280;65707;52.362;6.588;2024-03-23T04:57:12;100867.66;;;6.39;92.56
76766;BME280;65707;52.362;6.588;2024-03-23T04:59:38;100858.41;;;6.33;93.32
76766;BME280;65707;52.362;6.588;2024-03-23T05:02:04;100868.19;;;6.43;92.55
76766;BME280;65707;52.362;6.588;2024-03-23T05:04:31;100863.72;;;6.33;92.23
76766;BME280;65707;52.362;6.588;2024-03-23T05:06:57;100857.53;;;6.33;92.28
76766;BME280;65707;52.362;6.588;2024-03-23T05:09:24;100858.09;;;6.37;92.18
76766;BME280;65707;52.362;6.588;2024-03-23T05:11:50;100859.81;;;6.28;92.46
76766;BME280;65707;52.362;6.588;2024-03-23T05:14:18;100856.16;;;6.29;92.19
76766;BME280;65707;52.362;6.588;2024-03-23T05:16:43;100852.78;;;6.37;91.43
76766;BME280;65707;52.362;6.588;2024-03-23T05:19:10;100861.06;;;6.33;91.81
76766;BME280;65707;52.362;6.588;2024-03-23T05:21:36;100862.06;;;6.23;91.76
76766;BME280;65707;52.362;6.588;2024-03-23T05:24:03;100859.81;;;6.18;91.42
76766;BME280;65707;52.362;6.588;2024-03-23T05:26:29;100855.06;;;6.22;91.84
76766;BME280;65707;52.362;6.588;2024-03-23T05:28:56;100858.41;;;6.24;92.24
76766;BME280;65707;52.362;6.588;2024-03-23T05:31:27;100861.78;;;6.26;92.36
76766;BME280;65707;52.362;6.588;2024-03-23T05:33:55;100865.00;;;6.20;92.57
76766;BME280;65707;52.362;6.588;2024-03-23T05:36:21;100854.91;;;6.14;91.98
76766;BME280;65707;52.362;6.588;2024-03-23T05:38:49;100858.97;;;6.18;91.92
76766;BME280;65707;52.362;6.588;2024-03-23T05:41:14;100860.38;;;6.12;91.74
76766;BME280;65707;52.362;6.588;2024-03-23T05:43:41;100860.09;;;6.15;92.15
76766;BME280;65707;52.362;6.588;2024-03-23T05:46:07;100866.94;;;6.08;91.37
76766;BME280;65707;52.362;6.588;2024-03-23T05:48:35;100861.75;;;6.07;92.07
76766;BME280;65707;52.362;6.588;2024-03-23T05:51:01;100870.88;;;6.04;91.99
76766;BME280;65707;52.362;6.588;2024-03-23T05:53:29;100861.75;;;6.07;92.41
76766;BME280;65707;52.362;6.588;2024-03-23T05:56:00;100867.78;;;6.09;92.52
76766;BME280;65707;52.362;6.588;2024-03-23T05:58:29;100858.97;;;6.08;92.33
76766;BME280;65707;52.362;6.588;2024-03-23T06:00:57;100863.03;;;6.03;92.44
76766;BME280;65707;52.362;6.588;2024-03-23T06:03:25;100855.03;;;6.03;92.92
76766;BME280;65707;52.362;6.588;2024-03-23T06:05:53;100841.59;;;6.14;92.23
76766;BME280;65707;52.362;6.588;2024-03-23T06:08:21;100818.72;;;5.92;92.13
76766;BME280;65707;52.362;6.588;2024-03-23T06:10:47;100832.16;;;6.00;92.21
76766;BME280;65707;52.362;6.588;2024-03-23T06:13:14;100852.25;;;6.23;92.37
76766;BME280;65707;52.362;6.588;2024-03-23T06:15:39;100850.97;;;6.27;91.64
76766;BME280;65707;52.362;6.588;2024-03-23T06:18:06;100860.09;;;6.25;91.70
76766;BME280;65707;52.362;6.588;2024-03-23T06:20:33;100864.56;;;6.34;90.45
76766;BME280;65707;52.362;6.588;2024-03-23T06:23:01;100858.69;;;6.40;90.86
76766;BME280;65707;52.362;6.588;2024-03-23T06:25:27;100868.91;;;6.45;91.02
76766;BME280;65707;52.362;6.588;2024-03-23T06:27:54;100867.91;;;6.65;89.34
76766;BME280;65707;52.362;6.588;2024-03-23T06:30:20;100865.06;;;6.76;89.13
76766;BME280;65707;52.362;6.588;2024-03-23T06:32:47;100871.38;;;6.84;88.75
76766;BME280;65707;52.362;6.588;2024-03-23T06:35:13;100867.03;;;6.83;88.41
76766;BME280;65707;52.362;6.588;2024-03-23T06:37:39;100870.09;;;6.79;88.48
76766;BME280;65707;52.362;6.588;2024-03-23T06:40:08;100876.00;;;6.82;88.58
76766;BME280;65707;52.362;6.588;2024-03-23T06:42:36;100876.56;;;6.86;88.03
76766;BME280;65707;52.362;6.588;2024-03-23T06:45:02;100870.38;;;6.85;87.62
76766;BME280;65707;52.362;6.588;2024-03-23T06:47:30;100875.00;;;6.93;87.30
76766;BME280;65707;52.362;6.588;2024-03-23T06:49:56;100868.66;;;7.03;86.06
76766;BME280;65707;52.362;6.588;2024-03-23T06:52:22;100866.09;;;7.11;84.99
76766;BME280;65707;52.362;6.588;2024-03-23T06:54:48;100878.13;;;7.25;84.61
76766;BME280;65707;52.362;6.588;2024-03-23T06:57:16;100881.41;;;7.46;84.27
76766;BME280;65707;52.362;6.588;2024-03-23T06:59:42;100881.91;;;7.59;84.03
76766;BME280;65707;52.362;6.588;2024-03-23T07:02:09;100884.63;;;7.76;81.64
76766;BME280;65707;52.362;6.588;2024-03-23T07:04:35;100878.00;;;7.98;79.70
76766;BME280;65707;52.362;6.588;2024-03-23T07:07:02;100863.97;;;7.96;78.74
76766;BME280;65707;52.362;6.588;2024-03-23T07:09:28;100875.63;;;7.95;79.05
76766;BME280;65707;52.362;6.588;2024-03-23T07:11:56;100893.28;;;7.88;79.19
76766;BME280;65707;52.362;6.588;2024-03-23T07:14:24;100878.56;;;7.74;79.59
76766;BME280;65707;52.362;6.588;2024-03-23T07:16:51;100884.41;;;7.60;79.33
76766;BME280;65707;52.362;6.588;2024-03-23T07:19:17;100881.72;;;7.43;80.08
76766;BME280;65707;52.362;6.588;2024-03-23T07:21:44;100866.88;;;7.58;79.72
76766;BME280;65707;52.362;6.588;2024-03-23T07:24:11;100852.16;;;7.54;77.51
76766;BME280;65707;52.362;6.588;2024-03-23T07:26:38;100850.66;;;7.69;76.15
76766;BME280;65707;52.362;6.588;2024-03-23T07:29:03;100858.81;;;7.67;77.50
76766;BME280;65707;52.362;6.588;2024-03-23T07:31:32;100847.53;;;7.73;76.04
76766;BME280;65707;52.362;6.588;2024-03-23T07:33:58;100848.22;;;7.75;75.65
76766;BME280;65707;52.362;6.588;2024-03-23T07:36:25;100868.66;;;7.67;73.72
76766;BME280;65707;52.362;6.588;2024-03-23T07:38:51;100866.78;;;7.50;74.42
76766;BME280;65707;52.362;6.588;2024-03-23T07:41:20;100846.09;;;7.25;74.64
76766;BME280;65707;52.362;6.588;2024-03-23T07:43:47;100848.06;;;7.23;74.47
76766;BME280;65707;52.362;6.588;2024-03-23T07:46:15;100822.72;;;7.09;75.00
76766;BME280;65707;52.362;6.588;2024-03-23T07:48:42;100846.91;;;7.35;74.72
76766;BME280;65707;52.362;6.588;2024-03-23T07:51:11;100848.19;;;7.31;74.91
76766;BME280;65707;52.362;6.588;2024-03-23T07:53:43;100860.97;;;7.27;75.58
76766;BME280;65707;52.362;6.588;2024-03-23T07:56:10;100858.19;;;7.29;75.30
76766;BME280;65707;52.362;6.588;2024-03-23T07:58:37;100859.16;;;7.28;76.74
76766;BME280;65707;52.362;6.588;2024-03-23T08:01:05;100858.41;;;7.35;78.00
76766;BME280;65707;52.362;6.588;2024-03-23T08:03:33;100845.38;;;7.59;77.44
76766;BME280;65707;52.362;6.588;2024-03-23T08:06:08;100845.50;;;7.85;77.77
76766;BME280;65707;52.362;6.588;2024-03-23T08:08:34;100845.78;;;8.17;77.82
76766;BME280;65707;52.362;6.588;2024-03-23T08:11:01;100843.72;;;8.89;77.20
76766;BME280;65707;52.362;6.588;2024-03-23T08:13:27;100829.63;;;9.47;73.52
76766;BME280;65707;52.362;6.588;2024-03-23T08:15:56;100823.91;;;9.99;72.66
76766;BME280;65707;52.362;6.588;2024-03-23T08:18:22;100819.13;;;10.19;70.92
76766;BME280;65707;52.362;6.588;2024-03-23T08:20:55;100813.22;;;10.79;71.85
76766;BME280;65707;52.362;6.588;2024-03-23T08:23:24;100823.00;;;11.19;70.14
76766;BME280;65707;52.362;6.588;2024-03-23T08:25:50;100821.63;;;11.31;68.82
76766;BME280;65707;52.362;6.588;2024-03-23T08:28:16;100816.16;;;11.17;68.19
76766;BME280;65707;52.362;6.588;2024-03-23T08:30:43;100820.53;;;11.02;69.26
76766;BME280;65707;52.362;6.588;2024-03-23T08:33:09;100822.88;;;11.05;68.79
76766;BME280;65707;52.362;6.588;2024-03-23T08:35:35;100813.38;;;10.86;67.99
76766;BME280;65707;52.362;6.588;2024-03-23T08:38:01;100829.66;;;10.60;70.73
76766;BME280;65707;52.362;6.588;2024-03-23T08:40:29;100833.69;;;10.64;70.55
76766;BME280;65707;52.362;6.588;2024-03-23T08:42:55;100821.44;;;10.78;70.15
76766;BME280;65707;52.362;6.588;2024-03-23T08:45:21;100810.19;;;10.82;68.74
76766;BME280;65707;52.362;6.588;2024-03-23T08:47:47;100811.88;;;10.67;68.58
76766;BME280;65707;52.362;6.588;2024-03-23T08:50:14;100814.25;;;10.46;68.92
76766;BME280;65707;52.362;6.588;2024-03-23T08:52:40;100813.78;;;10.43;70.75
76766;BME280;65707;52.362;6.588;2024-03-23T08:55:07;100820.63;;;10.53;70.95
76766;BME280;65707;52.362;6.588;2024-03-23T08:57:36;100818.56;;;10.87;70.64
76766;BME280;65707;52.362;6.588;2024-03-23T09:00:03;100805.44;;;11.01;68.63
76766;BME280;65707;52.362;6.588;2024-03-23T09:02:31;100792.53;;;11.04;65.68
76766;BME280;65707;52.362;6.588;2024-03-23T09:04:58;100790.28;;;11.54;64.93
76766;BME280;65707;52.362;6.588;2024-03-23T09:07:29;100775.81;;;11.63;64.28
76766;BME280;65707;52.362;6.588;2024-03-23T09:09:56;100763.91;;;11.88;63.07
76766;BME280;65707;52.362;6.588;2024-03-23T09:12:22;100768.97;;;11.83;62.91
76766;BME280;65707;52.362;6.588;2024-03-23T09:14:50;100759.56;;;11.87;62.40
76766;BME280;65707;52.362;6.588;2024-03-23T09:17:16;100764.06;;;11.56;62.23
76766;BME280;65707;52.362;6.588;2024-03-23T09:19:43;100767.59;;;11.57;62.74
76766;BME280;65707;52.362;6.588;2024-03-23T09:22:09;100778.03;;;11.52;62.88
76766;BME280;65707;52.362;6.588;2024-03-23T09:24:36;100809.91;;;10.53;66.13
76766;BME280;65707;52.362;6.588;2024-03-23T09:27:02;100825.81;;;10.15;67.42
76766;BME280;65707;52.362;6.588;2024-03-23T09:29:29;100827.22;;;9.69;67.60
76766;BME280;65707;52.362;6.588;2024-03-23T09:31:56;100820.75;;;9.46;67.73
76766;BME280;65707;52.362;6.588;2024-03-23T09:34:23;100820.28;;;9.59;67.88
76766;BME280;65707;52.362;6.588;2024-03-23T09:36:51;100804.28;;;9.75;67.25
76766;BME280;65707;52.362;6.588;2024-03-23T09:39:18;100809.72;;;10.31;66.87
76766;BME280;65707;52.362;6.588;2024-03-23T09:41:44;100795.72;;;11.00;65.28
76766;BME280;65707;52.362;6.588;2024-03-23T09:44:12;100771.19;;;12.02;63.36
76766;BME280;65707;52.362;6.588;2024-03-23T09:46:38;100748.81;;;12.91;60.14
76766;BME280;65707;52.362;6.588;2024-03-23T09:49:07;100711.81;;;13.64;56.87
76766;BME280;65707;52.362;6.588;2024-03-23T09:51:35;100720.09;;;13.62;56.58
76766;BME280;65707;52.362;6.588;2024-03-23T09:54:03;100722.53;;;13.22;56.66
76766;BME280;65707;52.362;6.588;2024-03-23T09:56:29;100722.78;;;12.54;55.97
76766;BME280;65707;52.362;6.588;2024-03-23T09:59:00;100723.94;;;11.55;57.74
76766;BME280;65707;52.362;6.588;2024-03-23T10:01:26;100740.13;;;11.08;60.15
76766;BME280;65707;52.362;6.588;2024-03-23T10:03:53;100745.59;;;10.84;60.56
76766;BME280;65707;52.362;6.588;2024-03-23T10:06:22;100736.06;;;10.65;60.43
76766;BME280;65707;52.362;6.588;2024-03-23T10:08:51;100744.31;;;10.64;60.84
76766;BME280;65707;52.362;6.588;2024-03-23T10:11:18;100747.34;;;11.46;61.21
76766;BME280;65707;52.362;6.588;2024-03-23T10:13:46;100731.56;;;12.33;59.20
76766;BME280;65707;52.362;6.588;2024-03-23T10:16:21;100716.09;;;12.35;56.76
76766;BME280;65707;52.362;6.588;2024-03-23T10:18:49;100721.91;;;12.24;57.93
76766;BME280;65707;52.362;6.588;2024-03-23T10:21:16;100717.31;;;13.35;55.98
76766;BME280;65707;52.362;6.588;2024-03-23T10:23:44;100676.41;;;13.88;50.46
76766;BME280;65707;52.362;6.588;2024-03-23T10:26:15;100667.38;;;14.51;49.28
76766;BME280;65707;52.362;6.588;2024-03-23T10:28:54;100675.91;;;14.54;48.43
76766;BME280;65707;52.362;6.588;2024-03-23T10:31:23;100660.31;;;14.90;46.83
76766;BME280;65707;52.362;6.588;2024-03-23T10:33:50;100723.19;;;13.59;47.64
76766;BME280;65707;52.362;6.588;2024-03-23T10:36:19;100745.22;;;11.64;54.52
76766;BME280;65707;52.362;6.588;2024-03-23T10:38:49;100817.66;;;9.67;63.56
76766;BME280;65707;52.362;6.588;2024-03-23T10:41:16;100837.09;;;8.50;68.29
76766;BME280;65707;52.362;6.588;2024-03-23T10:43:45;100825.03;;;8.11;70.48
76766;BME280;65707;52.362;6.588;2024-03-23T10:46:12;100829.00;;;8.07;71.41
76766;BME280;65707;52.362;6.588;2024-03-23T10:48:39;100828.47;;;8.04;72.29
76766;BME280;65707;52.362;6.588;2024-03-23T10:51:06;100817.00;;;8.11;70.87
76766;BME280;65707;52.362;6.588;2024-03-23T10:53:34;100826.84;;;8.11;71.55
76766;BME280;65707;52.362;6.588;2024-03-23T10:56:04;100804.75;;;8.87;73.39
76766;BME280;65707;52.362;6.588;2024-03-23T10:58:36;100791.09;;;10.05;68.49
76766;BME280;65707;52.362;6.588;2024-03-23T11:01:04;100758.56;;;11.19;64.91
76766;BME280;65707;52.362;6.588;2024-03-23T11:03:35;100737.28;;;12.16;60.09
76766;BME280;65707;52.362;6.588;2024-03-23T11:06:03;100749.38;;;12.86;60.55
76766;BME280;65707;52.362;6.588;2024-03-23T11:08:32;100748.72;;;13.28;60.48
76766;BME280;65707;52.362;6.588;2024-03-23T11:11:14;100733.03;;;13.31;56.58
76766;BME280;65707;52.362;6.588;2024-03-23T11:13:43;100746.66;;;12.57;57.39
76766;BME280;65707;52.362;6.588;2024-03-23T11:16:22;100779.97;;;11.35;59.91
76766;BME280;65707;52.362;6.588;2024-03-23T11:18:50;100811.34;;;9.92;65.22
76766;BME280;65707;52.362;6.588;2024-03-23T11:21:53;100832.03;;;9.24;69.33
76766;BME280;65707;52.362;6.588;2024-03-23T11:24:21;100839.53;;;9.12;70.47
76766;BME280;65707;52.362;6.588;2024-03-23T11:26:49;100835.59;;;8.99;71.04
76766;BME280;65707;52.362;6.588;2024-03-23T11:29:16;100835.91;;;8.70;72.93
76766;BME280;65707;52.362;6.588;2024-03-23T11:31:46;100829.22;;;8.49;73.71
76766;BME280;65707;52.362;6.588;2024-03-23T11:34:15;100842.59;;;8.49;75.73
76766;BME280;65707;52.362;6.588;2024-03-23T11:36:41;100828.19;;;8.24;75.10
76766;BME280;65707;52.362;6.588;2024-03-23T11:39:12;100829.72;;;8.27;75.93
76766;BME280;65707;52.362;6.588;2024-03-23T11:41:49;100820.53;;;8.72;75.47
76766;BME280;65707;52.362;6.588;2024-03-23T11:44:17;100804.50;;;9.97;75.39
76766;BME280;65707;52.362;6.588;2024-03-23T11:46:44;100773.44;;;11.30;70.37
76766;BME280;65707;52.362;6.588;2024-03-23T11:49:21;100762.22;;;12.32;68.47
76766;BME280;65707;52.362;6.588;2024-03-23T11:51:48;100743.03;;;12.50;63.66
76766;BME280;65707;52.362;6.588;2024-03-23T11:54:15;100732.56;;;12.84;61.04
76766;BME280;65707;52.362;6.588;2024-03-23T11:56:55;100713.59;;;13.21;58.63
76766;BME280;65707;52.362;6.588;2024-03-23T11:59:35;100716.59;;;13.83;57.41
76766;BME280;65707;52.362;6.588;2024-03-23T12:02:06;100714.00;;;14.17;56.24
76766;BME280;65707;52.362;6.588;2024-03-23T12:04:34;100715.69;;;14.18;58.47
76766;BME280;65707;52.362;6.588;2024-03-23T12:07:11;100709.81;;;14.63;57.76
76766;BME280;65707;52.362;6.588;2024-03-23T12:09:39;100676.97;;;15.41;54.59
76766;BME280;65707;52.362;6.588;2024-03-23T12:12:08;100696.59;;;15.69;54.99
76766;BME280;65707;52.362;6.588;2024-03-23T12:14:37;100687.25;;;14.43;53.11
76766;BME280;65707;52.362;6.588;2024-03-23T12:17:10;100747.53;;;13.16;56.29
76766;BME280;65707;52.362;6.588;2024-03-23T12:19:38;100790.00;;;11.03;60.80
76766;BME280;65707;52.362;6.588;2024-03-23T12:22:05;100824.50;;;9.19;68.16
76766;BME280;65707;52.362;6.588;2024-03-23T12:24:33;100822.81;;;7.89;70.66
76766;BME280;65707;52.362;6.588;2024-03-23T12:27:00;100817.59;;;7.70;73.87
76766;BME280;65707;52.362;6.588;2024-03-23T12:29:30;100794.44;;;7.88;74.88
76766;BME280;65707;52.362;6.588;2024-03-23T12:31:59;100772.81;;;8.85;73.46
76766;BME280;65707;52.362;6.588;2024-03-23T12:34:27;100742.31;;;9.78;67.95
76766;BME280;65707;52.362;6.588;2024-03-23T12:36:53;100730.78;;;10.41;66.53
76766;BME280;65707;52.362;6.588;2024-03-23T12:39:20;100720.56;;;11.30;63.35
76766;BME280;65707;52.362;6.588;2024-03-23T12:41:46;100708.88;;;10.76;63.04
76766;BME280;65707;52.362;6.588;2024-03-23T12:44:13;100718.66;;;10.61;63.21
76766;BME280;65707;52.362;6.588;2024-03-23T12:46:41;100711.78;;;11.36;63.86
76766;BME280;65707;52.362;6.588;2024-03-23T12:49:08;100696.63;;;12.63;60.87
76766;BME280;65707;52.362;6.588;2024-03-23T12:51:34;100691.41;;;13.55;59.91
76766;BME280;65707;52.362;6.588;2024-03-23T12:54:01;100681.81;;;14.16;58.01
76766;BME280;65707;52.362;6.588;2024-03-23T12:56:27;100680.75;;;14.38;56.98
76766;BME280;65707;52.362;6.588;2024-03-23T12:58:54;100673.84;;;14.29;55.17
76766;BME280;65707;52.362;6.588;2024-03-23T13:01:22;100666.88;;;13.50;56.16
76766;BME280;65707;52.362;6.588;2024-03-23T13:03:51;100690.78;;;12.59;55.95
76766;BME280;65707;52.362;6.588;2024-03-23T13:06:17;100672.03;;;12.66;54.60
76766;BME280;65707;52.362;6.588;2024-03-23T13:08:44;100668.38;;;13.73;56.17
76766;BME280;65707;52.362;6.588;2024-03-23T13:11:11;100663.78;;;14.44;54.68
76766;BME280;65707;52.362;6.588;2024-03-23T13:13:38;100642.72;;;15.07;50.62
76766;BME280;65707;52.362;6.588;2024-03-23T13:16:04;100615.81;;;15.40;48.88
76766;BME280;65707;52.362;6.588;2024-03-23T13:18:32;100624.38;;;14.96;48.93
76766;BME280;65707;52.362;6.588;2024-03-23T13:20:59;100656.91;;;13.92;53.11
76766;BME280;65707;52.362;6.588;2024-03-23T13:23:26;100672.41;;;13.63;55.50
76766;BME280;65707;52.362;6.588;2024-03-23T13:25:52;100668.00;;;14.25;53.48
76766;BME280;65707;52.362;6.588;2024-03-23T13:28:21;100632.19;;;14.78;49.75
76766;BME280;65707;52.362;6.588;2024-03-23T13:30:51;100605.00;;;15.53;49.77
76766;BME280;65707;52.362;6.588;2024-03-23T13:33:18;100591.66;;;16.49;45.99
76766;BME280;65707;52.362;6.588;2024-03-23T13:35:51;100588.06;;;17.06;45.14
76766;BME280;65707;52.362;6.588;2024-03-23T13:38:19;100597.28;;;16.98;45.61
76766;BME280;65707;52.362;6.588;2024-03-23T13:40:52;100587.50;;;16.91;44.91
76766;BME280;65707;52.362;6.588;2024-03-23T13:43:19;100613.97;;;16.19;46.10
76766;BME280;65707;52.362;6.588;2024-03-23T13:45:46;100617.16;;;15.16;48.19
76766;BME280;65707;52.362;6.588;2024-03-23T13:48:15;100626.97;;;14.36;49.43
76766;BME280;65707;52.362;6.588;2024-03-23T13:50:41;100629.59;;;13.53;49.46
76766;BME280;65707;52.362;6.588;2024-03-23T13:53:08;100641.94;;;12.77;51.42